createdAt,value
2018-07-21T00:00:30.779Z,100.00
2018-07-21T00:01:53.954Z,100.00
2018-07-21T00:03:25.467Z,100.00
2018-07-21T00:04:48.936Z,100.00
2018-07-21T00:06:16.197Z,100.00
2018-07-21T00:07:43.629Z,100.00
2018-07-21T00:09:11.070Z,100.00
2018-07-21T00:10:38.475Z,100.00
2018-07-21T00:12:10.073Z,100.00
2018-07-21T00:13:33.282Z,100.00
2018-07-21T00:15:04.235Z,100.00
2018-07-21T00:16:27.563Z,100.00
2018-07-21T00:17:58.789Z,100.00
2018-07-21T00:19:22.279Z,100.00
2018-07-21T00:20:53.314Z,100.00
2018-07-21T00:22:20.729Z,100.00
2018-07-21T00:23:44.305Z,100.00
2018-07-21T00:25:15.816Z,100.00
2018-07-21T00:26:38.938Z,100.00
2018-07-21T00:28:06.171Z,100.00
2018-07-21T00:29:33.803Z,100.00
2018-07-21T00:31:01.187Z,100.00
2018-07-21T00:32:32.493Z,100.00
2018-07-21T00:33:59.516Z,100.00
2018-07-21T00:35:22.645Z,100.00
2018-07-21T00:36:53.942Z,100.00
2018-07-21T00:38:17.200Z,100.00
2018-07-21T00:39:44.609Z,100.00
2018-07-21T00:41:15.850Z,100.00
2018-07-21T00:42:42.856Z,100.00
2018-07-21T00:44:06.206Z,100.00
2018-07-21T00:45:37.697Z,100.00
2018-07-21T00:47:01.266Z,100.00
2018-07-21T00:48:32.725Z,100.00
2018-07-21T00:49:55.772Z,100.00
2018-07-21T00:51:23.332Z,100.00
2018-07-21T00:52:54.617Z,100.00
2018-07-21T00:54:22.103Z,100.00
2018-07-21T00:55:49.470Z,100.00
2018-07-21T00:57:16.984Z,100.00
2018-07-21T00:58:40.324Z,100.00
2018-07-21T01:00:11.397Z,100.00
2018-07-21T01:01:34.898Z,100.00
2018-07-21T01:03:02.358Z,100.00
2018-07-21T01:04:29.686Z,100.00
2018-07-21T01:06:00.904Z,100.00
2018-07-21T01:07:24.163Z,100.00
2018-07-21T01:08:51.326Z,100.00
2018-07-21T01:10:22.330Z,100.00
2018-07-21T01:11:49.650Z,100.00
2018-07-21T01:13:17.275Z,100.00
2018-07-21T01:14:44.365Z,100.00
2018-07-21T01:16:11.942Z,100.00
2018-07-21T01:17:38.946Z,100.00
2018-07-21T01:19:06.135Z,100.00
2018-07-21T01:20:29.423Z,100.00
2018-07-21T01:21:56.778Z,100.00
2018-07-21T01:23:24.262Z,100.00
2018-07-21T01:24:51.741Z,100.00
2018-07-21T01:26:19.251Z,100.00
2018-07-21T01:27:50.384Z,100.00
2018-07-21T01:29:13.745Z,100.00
2018-07-21T01:30:45.089Z,100.00
2018-07-21T01:32:08.474Z,100.00
2018-07-21T01:33:35.668Z,100.00
2018-07-21T01:35:07.055Z,100.00
2018-07-21T01:36:34.551Z,100.00
2018-07-21T01:37:57.793Z,100.00
2018-07-21T01:39:25.169Z,100.00
2018-07-21T01:40:52.593Z,100.00
2018-07-21T01:42:19.874Z,100.00
2018-07-21T01:43:51.367Z,100.00
2018-07-21T01:45:14.906Z,100.00
2018-07-21T01:46:42.352Z,100.00
2018-07-21T01:48:10.008Z,100.00
2018-07-21T01:49:37.142Z,100.00
2018-07-21T01:51:04.347Z,100.00
2018-07-21T01:52:35.744Z,100.00
2018-07-21T01:54:03.036Z,100.00
2018-07-21T01:55:26.366Z,100.00
2018-07-21T01:56:53.454Z,100.00
2018-07-21T01:58:20.825Z,100.00
2018-07-21T01:59:56.341Z,100.00
2018-07-21T02:01:15.542Z,100.00
2018-07-21T02:02:46.741Z,100.00
2018-07-21T02:04:09.847Z,100.00
2018-07-21T02:05:37.123Z,100.00
2018-07-21T02:07:04.635Z,100.00
2018-07-21T02:08:31.730Z,100.00
2018-07-21T02:10:02.842Z,100.00
2018-07-21T02:11:26.300Z,100.00
2018-07-21T02:12:57.566Z,100.00
2018-07-21T02:14:20.713Z,100.00
2018-07-21T02:15:52.113Z,100.00
2018-07-21T02:17:15.388Z,100.00
2018-07-21T02:18:42.879Z,100.00
2018-07-21T02:20:09.802Z,100.00
2018-07-21T02:21:41.254Z,100.00
2018-07-21T02:23:04.774Z,100.00
2018-07-21T02:24:35.990Z,100.00
2018-07-21T02:26:03.437Z,100.00
2018-07-21T02:27:26.894Z,100.00
2018-07-21T02:28:58.404Z,100.00
2018-07-21T02:30:25.751Z,100.00
2018-07-21T02:31:49.113Z,100.00
2018-07-21T02:33:20.230Z,100.00
2018-07-21T02:34:47.367Z,100.00
2018-07-21T02:36:10.683Z,100.00
2018-07-21T02:37:38.089Z,100.00
2018-07-21T02:39:05.019Z,100.00
2018-07-21T02:40:36.310Z,100.00
2018-07-21T02:41:59.572Z,100.00
2018-07-21T02:43:26.939Z,100.00
2018-07-21T02:44:58.284Z,100.00
2018-07-21T02:46:21.697Z,100.00
2018-07-21T02:47:49.100Z,100.00
2018-07-21T02:49:16.461Z,100.00
2018-07-21T02:50:47.792Z,100.00
2018-07-21T02:52:11.460Z,100.00
2018-07-21T02:53:38.847Z,100.00
2018-07-21T02:55:06.083Z,100.00
2018-07-21T02:56:33.389Z,100.00
2018-07-21T02:58:04.842Z,100.00
2018-07-21T02:59:28.158Z,100.00
2018-07-21T03:00:55.374Z,100.00
2018-07-21T03:02:22.560Z,100.00
2018-07-21T03:03:50.071Z,100.00
2018-07-21T03:05:21.394Z,100.00
2018-07-21T03:06:44.699Z,100.00
2018-07-21T03:08:16.173Z,100.00
2018-07-21T03:09:39.704Z,100.00
2018-07-21T03:11:10.983Z,100.00
2018-07-21T03:12:34.372Z,100.00
2018-07-21T03:14:05.833Z,100.00
2018-07-21T03:15:29.052Z,100.00
2018-07-21T03:17:00.498Z,100.00
2018-07-21T03:18:27.934Z,100.00
2018-07-21T03:19:51.311Z,100.00
2018-07-21T03:21:18.736Z,100.00
2018-07-21T03:22:46.351Z,100.00
2018-07-21T03:24:18.003Z,100.00
2018-07-21T03:25:45.096Z,100.00
2018-07-21T03:27:08.446Z,100.00
2018-07-21T03:28:39.832Z,100.00
2018-07-21T03:30:07.009Z,100.00
2018-07-21T03:31:34.615Z,100.00
2018-07-21T03:33:01.882Z,100.00
2018-07-21T03:34:25.052Z,100.00
2018-07-21T03:35:52.579Z,100.00
2018-07-21T03:37:19.540Z,100.00
2018-07-21T03:38:46.926Z,100.00
2018-07-21T03:40:18.265Z,100.00
2018-07-21T03:41:45.516Z,100.00
2018-07-21T03:43:12.870Z,100.00
2018-07-21T03:44:39.550Z,100.00
2018-07-21T03:46:03.036Z,100.00
2018-07-21T03:47:30.258Z,100.00
2018-07-21T03:49:01.561Z,100.00
2018-07-21T03:50:25.069Z,100.00
2018-07-21T03:51:52.317Z,100.00
2018-07-21T03:53:23.673Z,100.00
2018-07-21T03:54:47.233Z,100.00
2018-07-21T03:56:14.686Z,100.00
2018-07-21T03:57:42.126Z,100.00
2018-07-21T03:59:13.657Z,100.00
2018-07-21T04:00:41.224Z,100.00
2018-07-21T04:02:04.397Z,100.00
2018-07-21T04:03:35.876Z,100.00
2018-07-21T04:04:59.147Z,100.00
2018-07-21T04:06:26.483Z,100.00
2018-07-21T04:07:53.846Z,100.00
2018-07-21T04:09:25.247Z,100.00
2018-07-21T04:10:48.536Z,100.00
2018-07-21T04:12:15.888Z,100.00
2018-07-21T04:13:43.129Z,100.00
2018-07-21T04:15:14.531Z,100.00
2018-07-21T04:16:41.746Z,100.00
2018-07-21T04:18:09.131Z,100.00
2018-07-21T04:19:32.620Z,100.00
2018-07-21T04:20:59.835Z,100.00
2018-07-21T04:22:27.266Z,100.00
2018-07-21T04:23:58.661Z,100.00
2018-07-21T04:25:21.915Z,100.00
2018-07-21T04:26:49.022Z,100.00
2018-07-21T04:28:20.202Z,100.00
2018-07-21T04:29:47.606Z,100.00
2018-07-21T04:31:14.936Z,100.00
2018-07-21T04:32:38.194Z,100.00
2018-07-21T04:34:05.285Z,100.00
2018-07-21T04:35:32.273Z,100.00
2018-07-21T04:37:03.663Z,100.00
2018-07-21T04:38:31.132Z,100.00
2018-07-21T04:39:54.537Z,100.00
2018-07-21T04:41:21.858Z,100.00
2018-07-21T04:42:49.342Z,100.00
2018-07-21T04:44:16.876Z,100.00
2018-07-21T04:45:48.064Z,100.00
2018-07-21T04:47:15.471Z,100.00
2018-07-21T04:48:38.979Z,100.00
2018-07-21T04:50:06.263Z,100.00
2018-07-21T04:51:33.653Z,100.00
2018-07-21T04:53:05.020Z,100.00
2018-07-21T04:54:27.886Z,100.00
2018-07-21T04:55:55.387Z,100.00
2018-07-21T04:57:22.923Z,100.00
2018-07-21T04:58:54.089Z,100.00
2018-07-21T05:00:21.319Z,100.00
2018-07-21T05:01:48.776Z,100.00
2018-07-21T05:03:15.875Z,100.00
2018-07-21T05:10:31.883Z,100.00
2018-07-21T05:11:54.559Z,100.00
2018-07-21T05:13:21.849Z,100.00
2018-07-21T05:14:49.406Z,100.00
2018-07-21T05:16:16.642Z,100.00
2018-07-21T05:17:47.884Z,100.00
2018-07-21T05:19:15.287Z,100.00
2018-07-21T05:20:42.858Z,100.00
2018-07-21T05:22:10.210Z,100.00
2018-07-21T05:23:37.499Z,100.00
2018-07-21T05:25:04.783Z,100.00
2018-07-21T05:26:28.022Z,100.00
2018-07-21T05:27:59.293Z,100.00
2018-07-21T05:29:26.611Z,100.00
2018-07-21T05:30:54.057Z,100.00
2018-07-21T05:32:21.476Z,100.00
2018-07-21T05:33:44.932Z,100.00
2018-07-21T05:35:16.450Z,100.00
2018-07-21T05:36:39.932Z,100.00
2018-07-21T05:38:07.209Z,100.00
2018-07-21T05:39:34.802Z,100.00
2018-07-21T05:41:02.309Z,100.00
2018-07-21T05:42:33.726Z,100.00
2018-07-21T05:43:57.113Z,100.00
2018-07-21T05:45:28.784Z,100.00
2018-07-21T05:46:52.116Z,100.00
2018-07-21T05:48:19.612Z,100.00
2018-07-21T05:49:47.092Z,100.00
2018-07-21T05:51:14.473Z,100.00
2018-07-21T05:52:42.036Z,100.00
2018-07-21T05:54:09.579Z,100.00
2018-07-21T05:55:40.940Z,100.00
2018-07-21T05:57:08.469Z,100.00
2018-07-21T05:58:31.914Z,100.00
2018-07-21T05:59:59.236Z,100.00
2018-07-21T06:01:26.879Z,100.00
2018-07-21T06:02:54.353Z,100.00
2018-07-21T06:04:21.693Z,100.00
2018-07-21T06:05:53.529Z,100.00
2018-07-21T06:07:16.986Z,100.00
2018-07-21T06:08:44.335Z,100.00
2018-07-21T06:10:11.924Z,100.00
2018-07-21T06:11:39.433Z,100.00
2018-07-21T06:13:10.735Z,100.00
2018-07-21T06:14:33.910Z,100.00
2018-07-21T06:16:01.247Z,100.00
2018-07-21T06:17:32.749Z,100.00
2018-07-21T06:19:00.074Z,100.00
2018-07-21T06:20:23.309Z,100.00
2018-07-21T06:21:50.970Z,100.00
2018-07-21T06:23:15.310Z,100.00
2018-07-21T06:24:45.541Z,100.00
2018-07-21T06:26:13.058Z,100.00
2018-07-21T06:27:40.639Z,100.00
2018-07-21T06:29:07.963Z,100.00
2018-07-21T06:30:35.245Z,100.00
2018-07-21T06:32:02.531Z,100.00
2018-07-21T06:33:29.927Z,100.00
2018-07-21T06:34:57.185Z,100.00
2018-07-21T06:36:24.661Z,100.00
2018-07-21T06:37:51.806Z,100.00
2018-07-21T06:39:19.262Z,100.00
2018-07-21T06:40:46.693Z,100.00
2018-07-21T06:42:18.189Z,100.00
2018-07-21T06:43:41.856Z,100.00
2018-07-21T06:45:09.228Z,100.00
2018-07-21T06:46:36.496Z,100.00
2018-07-21T06:48:03.739Z,100.00
2018-07-21T06:49:31.290Z,100.00
2018-07-21T06:50:58.506Z,100.00
2018-07-21T06:52:30.017Z,100.00
2018-07-21T06:53:57.461Z,100.00
2018-07-21T06:55:20.985Z,100.00
2018-07-21T06:56:52.412Z,100.00
2018-07-21T06:58:16.148Z,100.00
2018-07-21T06:59:47.655Z,100.00
2018-07-21T07:01:11.177Z,100.00
2018-07-21T07:02:42.671Z,100.00
2018-07-21T07:04:06.059Z,100.00
2018-07-21T07:05:37.146Z,100.00
2018-07-21T07:07:04.514Z,100.00
2018-07-21T07:08:27.837Z,100.00
2018-07-21T07:09:55.247Z,100.00
2018-07-21T07:11:22.665Z,100.00
2018-07-21T07:12:50.237Z,100.00
2018-07-21T07:14:17.437Z,100.00
2018-07-21T07:15:48.775Z,100.00
2018-07-21T07:17:12.330Z,100.00
2018-07-21T07:18:43.554Z,100.00
2018-07-21T07:20:06.982Z,100.00
2018-07-21T07:21:38.577Z,100.00
2018-07-21T07:23:06.163Z,100.00
2018-07-21T07:24:29.531Z,100.00
2018-07-21T07:26:01.080Z,100.00
2018-07-21T07:27:24.497Z,100.00
2018-07-21T07:28:51.925Z,100.00
2018-07-21T07:30:19.065Z,100.00
2018-07-21T07:31:46.731Z,100.00
2018-07-21T07:33:18.115Z,100.00
2018-07-21T07:34:45.093Z,100.00
2018-07-21T07:36:08.816Z,100.00
2018-07-21T07:37:39.891Z,100.00
2018-07-21T07:39:07.392Z,100.00
2018-07-21T07:40:30.777Z,100.00
2018-07-21T07:41:58.541Z,100.00
2018-07-21T07:43:25.548Z,100.00
2018-07-21T07:44:53.032Z,100.00
2018-07-21T07:46:20.762Z,100.00
2018-07-21T07:47:52.186Z,100.00
2018-07-21T07:49:15.876Z,100.00
2018-07-21T07:50:43.475Z,100.00
2018-07-21T07:52:15.160Z,100.00
2018-07-21T07:53:38.594Z,100.00
2018-07-21T07:55:06.200Z,100.00
2018-07-21T07:56:37.453Z,100.00
2018-07-21T07:58:00.960Z,100.00
2018-07-21T07:59:28.629Z,100.00
2018-07-21T08:00:56.287Z,100.00
2018-07-21T08:02:23.818Z,100.00
2018-07-21T08:03:51.325Z,100.00
2018-07-21T08:05:22.963Z,100.00
2018-07-21T08:06:46.434Z,100.00
2018-07-21T08:08:14.152Z,100.00
2018-07-21T08:09:41.723Z,100.00
2018-07-21T08:11:13.145Z,100.00
2018-07-21T08:12:36.327Z,100.00
2018-07-21T08:14:03.966Z,100.00
2018-07-21T08:15:31.474Z,100.00
2018-07-21T08:16:59.071Z,100.00
2018-07-21T08:18:26.450Z,100.00
2018-07-21T08:19:57.967Z,95.50
2018-07-21T08:21:21.232Z,98.10
2018-07-21T08:22:48.518Z,95.21
2018-07-21T08:24:16.018Z,99.36
2018-07-21T08:25:43.769Z,96.19
2018-07-21T08:27:15.220Z,94.32
2018-07-21T08:28:38.729Z,95.40
2018-07-21T08:30:10.387Z,93.69
2018-07-21T08:31:33.694Z,94.14
2018-07-21T08:33:05.398Z,96.68
2018-07-21T08:34:28.878Z,90.44
2018-07-21T08:36:00.178Z,95.65
2018-07-21T08:37:23.640Z,94.12
2018-07-21T08:38:51.121Z,87.53
2018-07-21T08:40:22.807Z,90.80
2018-07-21T08:41:50.285Z,90.61
2018-07-21T08:43:13.894Z,89.43
2018-07-21T08:44:41.357Z,96.54
2018-07-21T08:46:13.083Z,99.87
2018-07-21T08:47:36.778Z,92.93
2018-07-21T08:49:04.326Z,96.12
2018-07-21T08:50:31.841Z,96.37
2018-07-21T08:52:03.455Z,96.29
2018-07-21T08:53:26.573Z,94.19
2018-07-21T08:54:54.212Z,94.92
2018-07-21T08:56:21.752Z,94.49
2018-07-21T08:57:49.427Z,98.19
2018-07-21T08:59:16.939Z,100.00
2018-07-21T09:00:44.631Z,100.00
2018-07-21T09:02:16.175Z,100.00
2018-07-21T09:03:39.947Z,97.14
2018-07-21T09:05:07.267Z,100.00
2018-07-21T09:06:34.821Z,95.75
2018-07-21T09:08:02.310Z,97.13
2018-07-21T09:09:29.849Z,90.52
2018-07-21T09:11:01.433Z,94.33
2018-07-21T09:12:29.144Z,100.00
2018-07-21T09:13:52.721Z,96.87
2018-07-21T09:15:24.273Z,92.80
2018-07-21T09:16:48.014Z,90.12
2018-07-21T09:18:15.508Z,97.03
2018-07-21T09:19:43.087Z,97.97
2018-07-21T09:21:10.916Z,91.14
2018-07-21T09:22:38.472Z,81.49
2018-07-21T09:24:06.131Z,83.91
2018-07-21T09:25:33.519Z,89.36
2018-07-21T09:27:00.823Z,79.07
2018-07-21T09:28:32.222Z,86.47
2018-07-21T09:29:55.657Z,85.85
2018-07-21T09:31:23.311Z,77.88
2018-07-21T09:32:54.902Z,80.74
2018-07-21T09:34:18.374Z,91.66
2018-07-21T09:35:46.126Z,91.18
2018-07-21T09:37:13.878Z,84.80
2018-07-21T09:38:41.730Z,88.55
2018-07-21T09:40:09.137Z,97.39
2018-07-21T09:41:36.754Z,95.73
2018-07-21T09:43:04.273Z,95.34
2018-07-21T09:44:31.845Z,94.54
2018-07-21T09:45:59.516Z,87.24
2018-07-21T09:47:26.954Z,88.28
2018-07-21T09:48:54.520Z,85.89
2018-07-21T09:50:22.373Z,82.86
2018-07-21T09:51:53.916Z,79.78
2018-07-21T09:53:16.976Z,84.73
2018-07-21T09:54:48.597Z,84.33
2018-07-21T09:56:16.047Z,83.00
2018-07-21T09:57:39.202Z,86.76
2018-07-21T09:59:06.753Z,83.67
2018-07-21T10:00:34.394Z,83.84
2018-07-21T10:02:01.878Z,82.77
2018-07-21T10:03:33.238Z,83.24
2018-07-21T10:04:56.272Z,82.12
2018-07-21T10:06:23.547Z,80.92
2018-07-21T10:07:55.180Z,80.71
2018-07-21T10:09:22.353Z,83.33
2018-07-21T10:10:46.172Z,79.26
2018-07-21T10:12:13.710Z,77.89
2018-07-21T10:13:41.213Z,77.79
2018-07-21T10:15:12.943Z,70.72
2018-07-21T10:16:36.542Z,72.32
2018-07-21T10:18:04.236Z,80.58
2018-07-21T10:19:35.760Z,68.30
2018-07-21T10:20:59.039Z,73.30
2018-07-21T10:22:30.388Z,73.06
2018-07-21T10:23:53.318Z,73.51
2018-07-21T10:25:24.990Z,74.90
2018-07-21T10:26:48.677Z,77.01
2018-07-21T10:28:16.337Z,78.29
2018-07-21T10:29:47.524Z,64.89
2018-07-21T10:31:11.145Z,63.23
2018-07-21T10:32:42.718Z,66.44
2018-07-21T10:34:06.268Z,69.74
2018-07-21T10:35:37.914Z,72.80
2018-07-21T10:37:05.546Z,70.67
2018-07-21T10:38:29.113Z,73.11
2018-07-21T10:39:56.504Z,76.50
2018-07-21T10:41:24.034Z,81.53
2018-07-21T10:42:51.857Z,77.66
2018-07-21T10:44:23.456Z,72.67
2018-07-21T10:45:51.105Z,70.30
2018-07-21T10:47:14.784Z,67.80
2018-07-21T10:48:42.283Z,71.08
2018-07-21T10:50:09.792Z,73.03
2018-07-21T10:51:34.524Z,69.78
2018-07-21T10:53:09.154Z,69.89
2018-07-21T10:54:32.753Z,71.78
2018-07-21T10:56:00.294Z,70.17
2018-07-21T10:57:27.738Z,74.94
2018-07-21T10:58:55.420Z,77.56
2018-07-21T11:00:22.925Z,71.44
2018-07-21T11:01:54.472Z,73.39
2018-07-21T11:03:18.192Z,74.69
2018-07-21T11:04:45.791Z,63.47
2018-07-21T11:06:17.519Z,65.22
2018-07-21T11:07:45.286Z,65.85
2018-07-21T11:09:13.057Z,68.45
2018-07-21T11:10:40.575Z,61.79
2018-07-21T11:12:04.360Z,74.08
2018-07-21T11:13:31.779Z,61.06
2018-07-21T11:15:03.233Z,60.04
2018-07-21T11:16:26.739Z,68.51
2018-07-21T11:17:58.351Z,72.53
2018-07-21T11:19:22.008Z,66.28
2018-07-21T11:20:49.478Z,64.40
2018-07-21T11:22:17.179Z,65.77
2018-07-21T11:23:44.939Z,65.68
2018-07-21T11:25:16.177Z,60.39
2018-07-21T11:26:39.523Z,55.90
2018-07-21T11:28:07.245Z,61.45
2018-07-21T11:29:38.982Z,63.02
2018-07-21T11:31:06.630Z,62.61
2018-07-21T11:32:34.209Z,63.17
2018-07-21T11:33:57.636Z,58.73
2018-07-21T11:35:29.465Z,52.62
2018-07-21T11:36:53.139Z,52.99
2018-07-21T11:38:20.615Z,54.14
2018-07-21T11:39:48.501Z,54.59
2018-07-21T11:41:16.001Z,56.07
2018-07-21T11:42:47.678Z,54.36
2018-07-21T11:44:11.357Z,51.72
2018-07-21T11:45:38.978Z,55.67
2018-07-21T11:47:06.488Z,51.66
2018-07-21T11:48:34.204Z,51.53
2018-07-21T11:50:05.850Z,50.45
2018-07-21T11:51:29.486Z,51.06
2018-07-21T11:53:00.954Z,49.96
2018-07-21T11:54:24.593Z,50.87
2018-07-21T11:55:52.141Z,49.73
2018-07-21T11:57:19.897Z,48.93
2018-07-21T11:58:47.475Z,49.56
2018-07-21T12:00:15.097Z,49.19
2018-07-21T12:01:42.827Z,48.75
2018-07-21T12:03:10.324Z,48.72
2018-07-21T12:04:38.047Z,45.73
2018-07-21T12:06:09.768Z,46.92
2018-07-21T12:07:33.317Z,47.81
2018-07-21T12:09:00.938Z,46.35
2018-07-21T12:10:28.616Z,43.84
2018-07-21T12:11:56.334Z,42.59
2018-07-21T12:13:24.029Z,44.32
2018-07-21T12:14:51.597Z,43.61
2018-07-21T12:16:23.383Z,43.71
2018-07-21T12:17:47.100Z,45.58
2018-07-21T12:19:15.077Z,46.99
2018-07-21T12:20:42.827Z,45.11
2018-07-21T12:22:10.279Z,44.67
2018-07-21T12:23:37.929Z,45.66
2018-07-21T12:25:05.618Z,46.96
2018-07-21T12:26:33.439Z,47.76
2018-07-21T12:28:01.093Z,46.34
2018-07-21T12:29:28.740Z,45.05
2018-07-21T12:31:00.216Z,47.05
2018-07-21T12:32:23.998Z,45.59
2018-07-21T12:33:51.558Z,45.91
2018-07-21T12:35:19.201Z,48.98
2018-07-21T12:36:46.769Z,48.20
2018-07-21T12:38:14.468Z,48.12
2018-07-21T12:39:42.048Z,46.63
2018-07-21T12:41:13.494Z,45.88
2018-07-21T12:42:36.971Z,46.02
2018-07-21T12:44:04.584Z,48.09
2018-07-21T12:45:32.136Z,47.09
2018-07-21T12:46:59.835Z,47.81
2018-07-21T12:48:27.471Z,48.32
2018-07-21T12:49:55.212Z,46.22
2018-07-21T12:51:22.913Z,45.37
2018-07-21T12:52:50.681Z,45.91
2018-07-21T12:54:18.411Z,46.26
2018-07-21T12:55:46.122Z,46.84
2018-07-21T12:57:13.708Z,43.11
2018-07-21T12:58:41.329Z,44.88
2018-07-21T13:00:09.019Z,45.55
2018-07-21T13:01:36.671Z,45.38
2018-07-21T13:03:04.345Z,43.17
2018-07-21T13:04:31.961Z,44.53
2018-07-21T13:05:56.503Z,47.16
2018-07-21T13:07:26.925Z,47.24
2018-07-21T13:08:58.534Z,44.69
2018-07-21T13:10:22.314Z,43.33
2018-07-21T13:11:53.948Z,45.17
2018-07-21T13:13:17.447Z,48.60
2018-07-21T13:14:45.037Z,48.80
2018-07-21T13:16:12.709Z,48.08
2018-07-21T13:17:40.446Z,49.68
2018-07-21T13:19:08.116Z,48.35
2018-07-21T13:20:39.423Z,47.62
2018-07-21T13:22:06.815Z,45.40
2018-07-21T13:23:30.366Z,45.16
2018-07-21T13:25:01.841Z,45.50
2018-07-21T13:26:25.565Z,45.75
2018-07-21T13:27:53.011Z,48.43
2018-07-21T13:29:24.679Z,45.85
2018-07-21T13:30:48.479Z,46.67
2018-07-21T13:32:20.082Z,48.53
2018-07-21T13:33:43.649Z,48.45
2018-07-21T13:35:11.267Z,48.53
2018-07-21T13:36:38.801Z,49.20
2018-07-21T13:38:06.414Z,49.22
2018-07-21T13:39:38.129Z,48.22
2018-07-21T13:41:01.687Z,49.13
2018-07-21T13:42:33.300Z,49.08
2018-07-21T13:43:56.824Z,49.80
2018-07-21T13:45:24.271Z,50.59
2018-07-21T13:46:55.843Z,49.05
2018-07-21T13:48:19.444Z,49.09
2018-07-21T13:49:47.184Z,47.16
2018-07-21T13:51:18.690Z,47.96
2018-07-21T13:52:42.425Z,51.12
2018-07-21T13:54:10.197Z,50.11
2018-07-21T13:55:37.844Z,50.94
2018-07-21T13:57:05.542Z,53.13
2018-07-21T13:58:33.206Z,51.68
2018-07-21T14:00:00.909Z,53.47
2018-07-21T14:01:28.404Z,51.73
2018-07-21T14:02:55.992Z,50.30
2018-07-21T14:04:27.590Z,50.82
2018-07-21T14:05:51.115Z,49.44
2018-07-21T14:07:18.892Z,50.17
2018-07-21T14:08:46.613Z,51.00
2018-07-21T14:10:14.228Z,52.21
2018-07-21T14:11:41.518Z,51.21
2018-07-21T14:13:13.115Z,49.92
2018-07-21T14:14:36.721Z,50.59
2018-07-21T14:16:04.152Z,50.92
2018-07-21T14:17:31.546Z,50.06
2018-07-21T14:18:59.242Z,50.80
2018-07-21T14:20:26.598Z,51.82
2018-07-21T14:21:54.494Z,51.99
2018-07-21T14:23:22.083Z,54.20
2018-07-21T14:24:49.712Z,52.37
2018-07-21T14:26:17.371Z,53.91
2018-07-21T14:27:49.025Z,54.12
2018-07-21T14:29:12.654Z,54.26
2018-07-21T14:30:40.511Z,57.13
2018-07-21T14:32:08.157Z,52.12
2018-07-21T14:33:35.532Z,54.88
2018-07-21T14:35:03.139Z,53.89
2018-07-21T14:36:30.906Z,51.09
2018-07-21T14:37:58.435Z,52.98
2018-07-21T14:39:26.039Z,56.15
2018-07-21T14:40:53.541Z,55.60
2018-07-21T14:42:21.151Z,58.20
2018-07-21T14:43:48.918Z,56.48
2018-07-21T14:45:20.645Z,52.73
2018-07-21T14:46:44.235Z,54.49
2018-07-21T14:48:15.808Z,56.17
2018-07-21T14:49:39.427Z,55.55
2018-07-21T14:51:06.973Z,53.89
2018-07-21T14:52:34.563Z,51.90
2018-07-21T14:54:02.151Z,50.28
2018-07-21T14:55:29.745Z,51.51
2018-07-21T14:56:57.099Z,51.76
2018-07-21T14:58:24.698Z,53.98
2018-07-21T14:59:56.321Z,53.63
2018-07-21T15:01:24.180Z,56.45
2018-07-21T15:02:47.841Z,55.66
2018-07-21T15:04:15.595Z,52.90
2018-07-21T15:05:43.348Z,56.14
2018-07-21T15:07:10.849Z,54.73
2018-07-21T15:08:42.382Z,54.95
2018-07-21T15:10:06.107Z,56.65
2018-07-21T15:11:33.816Z,55.99
2018-07-21T15:13:01.424Z,59.92
2018-07-21T15:14:32.831Z,54.69
2018-07-21T15:15:56.368Z,56.77
2018-07-21T15:17:23.727Z,55.13
2018-07-21T15:18:51.449Z,52.27
2018-07-21T15:20:19.041Z,53.34
2018-07-21T15:21:46.807Z,51.03
2018-07-21T15:23:14.328Z,50.74
2018-07-21T15:24:45.966Z,50.94
2018-07-21T15:26:13.634Z,53.79
2018-07-21T15:27:41.285Z,57.16
2018-07-21T15:29:04.801Z,56.04
2018-07-21T15:30:32.368Z,57.38
2018-07-21T15:31:59.992Z,61.42
2018-07-21T15:33:31.569Z,56.03
2018-07-21T15:34:54.979Z,56.22
2018-07-21T15:36:22.430Z,61.50
2018-07-21T15:37:50.075Z,65.48
2018-07-21T15:39:17.857Z,59.39
2018-07-21T15:40:45.406Z,56.71
2018-07-21T15:42:13.203Z,58.23
2018-07-21T15:43:44.724Z,60.21
2018-07-21T15:45:08.398Z,64.18
2018-07-21T15:46:36.148Z,60.47
2018-07-21T15:48:03.770Z,64.55
2018-07-21T15:49:35.336Z,62.74
2018-07-21T15:50:58.894Z,59.47
2018-07-21T15:52:26.509Z,53.89
2018-07-21T15:53:54.210Z,58.75
2018-07-21T15:55:25.682Z,57.57
2018-07-21T15:56:49.501Z,57.92
2018-07-21T15:58:17.034Z,56.95
2018-07-21T15:59:44.684Z,63.38
2018-07-21T16:01:12.012Z,62.09
2018-07-21T16:02:39.691Z,59.00
2018-07-21T16:04:07.270Z,56.64
2018-07-21T16:05:35.025Z,57.54
2018-07-21T16:07:06.386Z,58.41
2018-07-21T16:08:29.873Z,58.85
2018-07-21T16:09:57.441Z,60.40
2018-07-21T16:11:29.008Z,56.82
2018-07-21T16:12:52.563Z,58.89
2018-07-21T16:14:24.151Z,56.19
2018-07-21T16:15:47.915Z,58.16
2018-07-21T16:17:15.545Z,60.95
2018-07-21T16:18:43.257Z,58.63
2018-07-21T16:20:10.796Z,62.49
2018-07-21T16:21:38.379Z,63.05
2018-07-21T16:23:06.019Z,62.97
2018-07-21T16:24:33.530Z,61.42
2018-07-21T16:26:01.080Z,63.92
2018-07-21T16:27:28.725Z,67.46
2018-07-21T16:29:00.222Z,58.64
2018-07-21T16:30:27.927Z,58.15
2018-07-21T16:31:55.628Z,63.19
2018-07-21T16:33:23.215Z,59.61
2018-07-21T16:34:46.895Z,58.89
2018-07-21T16:36:14.364Z,64.09
2018-07-21T16:37:41.768Z,60.63
2018-07-21T16:39:13.271Z,60.70
2018-07-21T16:40:36.948Z,60.16
2018-07-21T16:42:04.609Z,62.49
2018-07-21T16:43:32.150Z,63.45
2018-07-21T16:44:59.889Z,68.16
2018-07-21T16:46:27.516Z,63.28
2018-07-21T16:47:54.847Z,61.47
2018-07-21T16:49:22.430Z,61.64
2018-07-21T16:50:50.180Z,57.91
2018-07-21T16:52:17.833Z,59.93
2018-07-21T16:53:45.465Z,57.37
2018-07-21T16:55:12.935Z,58.14
2018-07-21T16:56:44.606Z,65.35
2018-07-21T16:58:12.133Z,65.55
2018-07-21T16:59:35.833Z,66.99
2018-07-21T17:01:03.242Z,68.79
2018-07-21T17:02:30.978Z,70.84
2018-07-21T17:03:58.541Z,69.29
2018-07-21T17:05:30.049Z,68.00
2018-07-21T17:06:53.698Z,61.69
2018-07-21T17:08:21.223Z,61.75
2018-07-21T17:09:48.579Z,62.98
2018-07-21T17:11:16.165Z,62.99
2018-07-21T17:12:43.746Z,67.45
2018-07-21T17:14:11.463Z,67.44
2018-07-21T17:15:39.158Z,70.71
2018-07-21T17:17:06.824Z,72.37
2018-07-21T17:18:34.331Z,71.39
2018-07-21T17:20:01.902Z,74.36
2018-07-21T17:21:29.372Z,69.71
2018-07-21T17:24:24.647Z,71.06
2018-07-21T17:25:52.091Z,72.01
2018-07-21T17:27:23.703Z,71.68
2018-07-21T17:28:51.313Z,72.63
2018-07-21T17:30:14.997Z,71.95
2018-07-21T17:31:46.613Z,74.14
2018-07-21T17:33:10.257Z,70.36
2018-07-21T17:34:37.720Z,70.99
2018-07-21T17:36:09.305Z,70.90
2018-07-21T17:37:36.849Z,73.55
2018-07-21T17:39:04.398Z,71.26
2018-07-21T17:40:27.809Z,72.21
2018-07-21T17:41:55.646Z,72.96
2018-07-21T17:43:23.067Z,71.42
2018-07-21T17:44:54.670Z,72.71
2018-07-21T17:46:18.166Z,72.21
2018-07-21T17:47:45.812Z,73.22
2018-07-21T17:49:23.192Z,75.40
2018-07-21T17:50:50.365Z,74.99
2018-07-21T17:52:22.032Z,74.10
2018-07-21T17:53:45.324Z,77.67
2018-07-21T17:55:12.929Z,72.36
2018-07-21T17:56:40.491Z,75.98
2018-07-21T17:58:12.174Z,75.56
2018-07-21T17:59:35.808Z,77.96
2018-07-21T18:01:07.393Z,76.70
2018-07-21T18:02:30.915Z,74.05
2018-07-21T18:03:58.516Z,74.77
2018-07-21T18:05:26.189Z,76.11
2018-07-21T18:06:53.664Z,75.46
2018-07-21T18:08:25.164Z,79.44
2018-07-21T18:09:48.779Z,75.70
2018-07-21T18:11:16.607Z,72.84
2018-07-21T18:12:48.175Z,72.18
2018-07-21T18:14:15.829Z,72.55
2018-07-21T18:15:39.468Z,72.50
2018-07-21T18:17:06.926Z,72.55
2018-07-21T18:18:34.525Z,73.34
2018-07-21T18:20:02.155Z,73.71
2018-07-21T18:21:33.709Z,74.06
2018-07-21T18:22:57.072Z,74.71
2018-07-21T18:24:28.533Z,75.94
2018-07-21T18:25:51.917Z,76.01
2018-07-21T18:27:23.001Z,75.85
2018-07-21T18:28:46.498Z,76.35
2018-07-21T18:30:17.951Z,75.72
2018-07-21T18:31:41.535Z,76.30
2018-07-21T18:33:09.032Z,76.61
2018-07-21T18:34:36.629Z,76.22
2018-07-21T18:36:03.913Z,78.72
2018-07-21T18:37:31.499Z,80.79